Terminal Aerodrome Forecast
Issued by NWS Louisville, KY

Home | Current Version | Previous Version | Text Only | Print | Product List | Glossary On
Versions: 1 2 3 4 5 6 7 8 9 10 11 12 13 14
699
FTUS43 KLMK 241014 AAA
TAFLEX
TAF AMD
KLEX 241014Z 2410/2506 00000KT P6SM SKC
      TEMPO 2412/2413 5SM BR
     FM241300 02005KT P6SM SCT070=

USA.gov is the U.S. government's official web portal to all federal, state and local government web resources and services.